createdAt,value
2023-01-26T00:00:10.137Z,0.00
2023-01-26T00:01:09.727Z,0.00
2023-01-26T00:02:09.706Z,0.00
2023-01-26T00:03:09.687Z,0.00
2023-01-26T00:04:09.747Z,0.00
2023-01-26T00:05:09.718Z,0.00
2023-01-26T00:06:09.608Z,0.00
2023-01-26T00:07:09.589Z,0.00
2023-01-26T00:08:09.568Z,0.00
2023-01-26T00:09:09.546Z,0.00
2023-01-26T00:10:09.867Z,0.00
2023-01-26T00:11:09.530Z,0.00
2023-01-26T00:12:09.473Z,0.00
2023-01-26T00:13:09.463Z,0.00
2023-01-26T00:14:09.431Z,0.00
2023-01-26T00:15:09.429Z,0.00
2023-01-26T00:16:09.418Z,0.00
2023-01-26T00:17:09.365Z,0.00
2023-01-26T00:18:09.330Z,0.00
2023-01-26T00:19:09.318Z,0.00
2023-01-26T00:20:09.764Z,0.00
2023-01-26T00:21:09.274Z,0.00
2023-01-26T00:22:09.252Z,0.00
2023-01-26T00:23:09.220Z,0.00
2023-01-26T00:24:09.209Z,0.00
2023-01-26T00:25:09.176Z,0.00
2023-01-26T00:26:09.153Z,0.00
2023-01-26T00:27:09.181Z,0.00
2023-01-26T00:28:09.101Z,0.00
2023-01-26T00:29:09.081Z,0.00
2023-01-26T00:30:09.581Z,0.00
2023-01-26T00:31:09.063Z,0.00
2023-01-26T00:32:09.018Z,0.00
2023-01-26T00:33:09.013Z,0.00
2023-01-26T00:34:08.991Z,0.00
2023-01-26T00:35:08.943Z,0.00
2023-01-26T00:36:08.916Z,0.00
2023-01-26T00:37:08.900Z,0.00
2023-01-26T00:38:08.898Z,0.00
2023-01-26T00:39:08.848Z,0.00
2023-01-26T00:40:09.034Z,0.00
2023-01-26T00:41:08.803Z,0.00
2023-01-26T00:42:08.778Z,0.00
2023-01-26T00:43:08.784Z,0.00
2023-01-26T00:44:08.748Z,0.00
2023-01-26T00:45:08.716Z,0.00
2023-01-26T00:46:08.687Z,0.00
2023-01-26T00:47:08.674Z,0.00
2023-01-26T00:48:08.704Z,0.00
2023-01-26T00:49:08.625Z,0.00
2023-01-26T00:50:08.891Z,0.00
2023-01-26T00:51:08.574Z,0.00
2023-01-26T00:52:08.548Z,0.00
2023-01-26T00:53:08.525Z,0.00
2023-01-26T00:54:08.553Z,0.00
2023-01-26T00:55:08.483Z,0.00
2023-01-26T00:56:08.457Z,0.00
2023-01-26T00:57:08.443Z,0.00
2023-01-26T00:58:08.411Z,0.00
2023-01-26T00:59:08.395Z,0.00
2023-01-26T01:00:08.545Z,0.00
2023-01-26T01:01:08.398Z,0.00
2023-01-26T01:02:08.396Z,0.00
2023-01-26T01:03:08.316Z,0.00
2023-01-26T01:04:08.343Z,0.00
2023-01-26T01:05:08.252Z,0.00
2023-01-26T01:06:08.223Z,0.00
2023-01-26T01:07:08.217Z,0.00
2023-01-26T01:08:08.178Z,0.00
2023-01-26T01:09:08.163Z,0.00
2023-01-26T01:10:08.227Z,0.00
2023-01-26T01:11:08.146Z,0.00
2023-01-26T01:12:08.103Z,0.00
2023-01-26T01:13:08.070Z,0.00
2023-01-26T01:14:08.058Z,0.00
2023-01-26T01:15:08.090Z,0.00
2023-01-26T01:16:08.028Z,0.00
2023-01-26T01:17:07.973Z,0.00
2023-01-26T01:18:07.949Z,0.00
2023-01-26T01:19:07.940Z,0.00
2023-01-26T01:20:08.139Z,0.00
2023-01-26T01:21:07.905Z,0.00
2023-01-26T01:22:07.859Z,0.00
2023-01-26T01:23:07.845Z,0.00
2023-01-26T01:24:07.825Z,0.00
2023-01-26T01:25:07.817Z,0.00
2023-01-26T01:26:07.802Z,0.00
2023-01-26T01:27:07.751Z,0.00
2023-01-26T01:28:07.724Z,0.00
2023-01-26T01:29:07.705Z,0.00
2023-01-26T01:30:07.735Z,0.00
2023-01-26T01:31:07.754Z,0.00
2023-01-26T01:32:07.631Z,0.00
2023-01-26T01:33:07.611Z,0.00
2023-01-26T01:34:07.578Z,0.00
2023-01-26T01:35:07.696Z,0.00
2023-01-26T01:36:08.511Z,0.00
2023-01-26T01:37:07.515Z,0.00
2023-01-26T01:38:07.489Z,0.00
2023-01-26T01:39:07.467Z,0.00
2023-01-26T01:40:07.463Z,0.00
2023-01-26T01:41:07.474Z,0.00
2023-01-26T01:42:07.397Z,0.00
2023-01-26T01:43:07.380Z,0.00
2023-01-26T01:44:07.356Z,0.00
2023-01-26T01:45:07.335Z,0.00
2023-01-26T01:46:07.332Z,0.00
2023-01-26T01:47:07.325Z,0.00
2023-01-26T01:48:07.267Z,0.00
2023-01-26T01:49:07.241Z,0.00
2023-01-26T01:50:07.212Z,0.00
2023-01-26T01:51:07.192Z,0.00
2023-01-26T01:52:07.201Z,0.00
2023-01-26T01:53:07.145Z,0.00
2023-01-26T01:54:07.119Z,0.00
2023-01-26T01:55:07.104Z,0.00
2023-01-26T01:56:07.070Z,0.00
2023-01-26T01:57:07.082Z,0.00
2023-01-26T01:58:07.033Z,0.00
2023-01-26T01:59:07.004Z,0.00
2023-01-26T02:00:06.980Z,0.00
2023-01-26T02:01:07.036Z,0.00
2023-01-26T02:02:07.039Z,0.00
2023-01-26T02:03:06.918Z,0.00
2023-01-26T02:04:06.899Z,0.00
2023-01-26T02:05:06.865Z,0.00
2023-01-26T02:06:06.842Z,0.00
2023-01-26T02:07:06.822Z,0.00
2023-01-26T02:08:06.797Z,0.00
2023-01-26T02:09:06.779Z,0.00
2023-01-26T02:10:06.750Z,0.00
2023-01-26T02:11:06.726Z,0.00
2023-01-26T02:12:06.731Z,0.00
2023-01-26T02:13:06.681Z,0.00
2023-01-26T02:14:06.700Z,0.00
2023-01-26T02:15:06.634Z,0.00
2023-01-26T02:16:06.655Z,0.00
2023-01-26T02:17:06.600Z,0.00
2023-01-26T02:18:06.563Z,0.00
2023-01-26T02:19:06.541Z,0.00
2023-01-26T02:20:06.550Z,0.00
2023-01-26T02:21:06.500Z,0.00
2023-01-26T02:22:06.469Z,0.00
2023-01-26T02:23:06.461Z,0.00
2023-01-26T02:24:06.463Z,0.00
2023-01-26T02:25:06.425Z,0.00
2023-01-26T02:26:06.378Z,0.00
2023-01-26T02:27:06.361Z,0.00
2023-01-26T02:28:06.327Z,0.00
2023-01-26T02:29:06.331Z,0.00
2023-01-26T02:30:06.314Z,0.00
2023-01-26T02:31:06.453Z,0.00
2023-01-26T02:32:06.238Z,0.00
2023-01-26T02:33:06.212Z,0.00
2023-01-26T02:34:06.196Z,0.00
2023-01-26T02:35:06.181Z,0.00
2023-01-26T02:36:06.151Z,0.00
2023-01-26T02:37:06.131Z,0.00
2023-01-26T02:38:06.098Z,0.00
2023-01-26T02:39:06.084Z,0.00
2023-01-26T02:40:06.063Z,0.00
2023-01-26T02:41:06.063Z,0.00
2023-01-26T02:42:06.004Z,0.00
2023-01-26T02:43:05.985Z,0.00
2023-01-26T02:44:05.968Z,0.00
2023-01-26T02:45:05.932Z,0.00
2023-01-26T02:46:06.016Z,0.00
2023-01-26T02:47:05.893Z,0.00
2023-01-26T02:48:05.866Z,0.00
2023-01-26T02:49:05.845Z,0.00
2023-01-26T02:50:05.822Z,0.00
2023-01-26T02:51:05.799Z,0.00
2023-01-26T02:52:05.817Z,0.00
2023-01-26T02:53:05.782Z,0.00
2023-01-26T02:54:05.736Z,0.00
2023-01-26T02:55:05.709Z,0.00
2023-01-26T02:56:05.678Z,0.00
2023-01-26T02:57:05.654Z,0.00
2023-01-26T02:58:05.672Z,0.00
2023-01-26T02:59:05.610Z,0.00
2023-01-26T03:00:05.585Z,0.00
2023-01-26T03:01:05.655Z,0.00
2023-01-26T03:02:05.555Z,0.00
2023-01-26T03:03:05.554Z,0.00
2023-01-26T03:04:05.523Z,0.00
2023-01-26T03:05:05.466Z,0.00
2023-01-26T03:06:05.443Z,0.00
2023-01-26T03:07:05.425Z,0.00
2023-01-26T03:08:05.405Z,0.00
2023-01-26T03:09:05.378Z,0.00
2023-01-26T03:10:05.350Z,0.00
2023-01-26T03:11:05.333Z,0.00
2023-01-26T03:12:05.310Z,0.00
2023-01-26T03:13:05.339Z,0.00
2023-01-26T03:14:05.258Z,0.00
2023-01-26T03:15:05.235Z,0.00
2023-01-26T03:16:05.258Z,0.00
2023-01-26T03:17:05.188Z,0.00
2023-01-26T03:18:05.192Z,0.00
2023-01-26T03:19:05.144Z,0.00
2023-01-26T03:20:05.118Z,0.00
2023-01-26T03:21:05.106Z,0.00
2023-01-26T03:22:05.070Z,0.00
2023-01-26T03:23:05.047Z,0.00
2023-01-26T03:24:05.155Z,0.00
2023-01-26T03:25:05.008Z,0.00
2023-01-26T03:26:04.975Z,0.00
2023-01-26T03:27:04.963Z,0.00
2023-01-26T03:28:04.931Z,0.00
2023-01-26T03:29:04.910Z,0.00
2023-01-26T03:30:04.891Z,0.00
2023-01-26T03:31:04.898Z,0.00
2023-01-26T03:32:04.838Z,0.00
2023-01-26T03:33:04.816Z,0.00
2023-01-26T03:34:04.809Z,0.00
2023-01-26T03:35:04.793Z,0.00
2023-01-26T03:36:04.752Z,0.00
2023-01-26T03:37:04.722Z,0.00
2023-01-26T03:38:04.702Z,0.00
2023-01-26T03:39:04.675Z,0.00
2023-01-26T03:40:04.681Z,0.00
2023-01-26T03:41:04.631Z,0.00
2023-01-26T03:42:04.612Z,0.00
2023-01-26T03:43:04.581Z,0.00
2023-01-26T03:44:04.563Z,0.00
2023-01-26T03:45:04.575Z,0.00
2023-01-26T03:46:04.540Z,0.00
2023-01-26T03:47:04.487Z,0.00
2023-01-26T03:48:04.472Z,0.00
2023-01-26T03:49:04.446Z,0.00
2023-01-26T03:50:04.469Z,0.00
2023-01-26T03:51:04.402Z,0.00
2023-01-26T03:52:04.388Z,0.00
2023-01-26T03:53:04.360Z,0.00
2023-01-26T03:54:04.331Z,0.00
2023-01-26T03:55:04.306Z,0.00
2023-01-26T03:56:04.307Z,0.00
2023-01-26T03:57:04.260Z,0.00
2023-01-26T03:58:04.228Z,0.00
2023-01-26T03:59:04.205Z,0.00
2023-01-26T04:00:04.182Z,0.00
2023-01-26T04:01:04.188Z,0.00
2023-01-26T04:02:04.193Z,0.00
2023-01-26T04:03:04.119Z,0.00
2023-01-26T04:04:04.087Z,0.00
2023-01-26T04:05:04.075Z,0.00
2023-01-26T04:06:15.612Z,0.00
2023-01-26T04:07:04.020Z,0.00
2023-01-26T04:08:04.000Z,0.00
2023-01-26T04:09:03.973Z,0.00
2023-01-26T04:10:03.962Z,0.00
2023-01-26T04:11:03.959Z,0.00
2023-01-26T04:12:03.904Z,0.00
2023-01-26T04:13:03.880Z,0.00
2023-01-26T04:14:03.874Z,0.00
2023-01-26T04:15:03.834Z,0.00
2023-01-26T04:16:03.861Z,0.00
2023-01-26T04:17:03.838Z,0.00
2023-01-26T04:18:03.759Z,0.00
2023-01-26T04:19:03.740Z,0.00
2023-01-26T04:20:03.716Z,0.00
2023-01-26T04:21:03.693Z,0.00
2023-01-26T04:22:03.675Z,0.00
2023-01-26T04:23:03.653Z,0.00
2023-01-26T04:24:03.644Z,0.00
2023-01-26T04:25:03.603Z,0.00
2023-01-26T04:26:03.581Z,0.00
2023-01-26T04:27:03.548Z,0.00
2023-01-26T04:28:03.575Z,0.00
2023-01-26T04:29:03.537Z,0.00
2023-01-26T04:30:03.489Z,0.00
2023-01-26T04:31:03.461Z,0.00
2023-01-26T04:32:03.441Z,0.00
2023-01-26T04:33:03.421Z,0.00
2023-01-26T04:34:03.453Z,0.00
2023-01-26T04:35:03.364Z,0.00
2023-01-26T04:36:03.346Z,0.00
2023-01-26T04:37:03.328Z,0.00
2023-01-26T04:38:03.289Z,0.00
2023-01-26T04:39:03.271Z,0.00
2023-01-26T04:40:03.276Z,0.00
2023-01-26T04:41:03.244Z,0.00
2023-01-26T04:42:03.199Z,0.00
2023-01-26T04:43:03.178Z,0.00
2023-01-26T04:44:03.152Z,0.00
2023-01-26T04:45:03.147Z,0.00
2023-01-26T04:46:03.149Z,0.00
2023-01-26T04:47:03.085Z,0.00
2023-01-26T04:48:03.060Z,0.00
2023-01-26T04:49:03.040Z,0.00
2023-01-26T04:50:03.052Z,0.00
2023-01-26T04:51:03.012Z,0.00
2023-01-26T04:52:02.968Z,0.00
2023-01-26T04:53:02.947Z,0.00
2023-01-26T04:54:02.919Z,0.00
2023-01-26T04:55:02.907Z,0.00
2023-01-26T04:56:02.906Z,0.00
2023-01-26T04:57:02.855Z,0.00
2023-01-26T04:58:03.964Z,0.00
2023-01-26T04:59:02.811Z,0.00
2023-01-26T05:00:02.782Z,0.00
2023-01-26T05:01:02.801Z,0.00
2023-01-26T05:02:02.733Z,0.00
2023-01-26T05:03:02.711Z,0.00
2023-01-26T05:04:02.765Z,0.00
2023-01-26T05:05:02.700Z,0.00
2023-01-26T05:06:02.651Z,0.00
2023-01-26T05:07:02.627Z,0.00
2023-01-26T05:08:02.628Z,0.00
2023-01-26T05:09:02.574Z,0.00
2023-01-26T05:10:02.599Z,0.00
2023-01-26T05:11:02.524Z,0.00
2023-01-26T05:12:02.508Z,0.00
2023-01-26T05:13:02.481Z,0.00
2023-01-26T05:14:02.450Z,0.00
2023-01-26T05:15:02.432Z,0.00
2023-01-26T05:16:02.471Z,0.00
2023-01-26T05:17:02.384Z,0.00
2023-01-26T05:18:02.372Z,0.00
2023-01-26T05:19:02.389Z,0.00
2023-01-26T05:20:02.311Z,0.00
2023-01-26T05:21:02.305Z,0.00
2023-01-26T05:22:02.276Z,0.00
2023-01-26T05:23:02.267Z,0.00
2023-01-26T05:24:02.274Z,0.00
2023-01-26T05:25:02.207Z,0.00
2023-01-26T05:26:02.173Z,0.00
2023-01-26T05:27:02.156Z,0.00
2023-01-26T05:28:02.156Z,0.00
2023-01-26T05:29:02.117Z,0.00
2023-01-26T05:30:02.155Z,0.00
2023-01-26T05:31:02.148Z,0.00
2023-01-26T05:32:02.089Z,0.00
2023-01-26T05:33:02.020Z,0.00
2023-01-26T05:34:01.990Z,0.00
2023-01-26T05:35:01.965Z,0.00
2023-01-26T05:36:01.978Z,0.00
2023-01-26T05:37:01.919Z,0.00
2023-01-26T05:38:01.895Z,0.00
2023-01-26T05:39:01.882Z,0.00
2023-01-26T05:40:01.846Z,0.00
2023-01-26T05:41:01.876Z,0.00
2023-01-26T05:42:01.803Z,0.00
2023-01-26T05:43:01.858Z,0.00
2023-01-26T05:44:01.764Z,0.00
2023-01-26T05:45:01.745Z,0.00
2023-01-26T05:46:01.770Z,0.00
2023-01-26T05:47:01.692Z,0.00
2023-01-26T05:48:01.676Z,0.00
2023-01-26T05:49:01.647Z,0.00
2023-01-26T05:50:01.639Z,0.00
2023-01-26T05:51:03.861Z,0.00
2023-01-26T05:52:01.567Z,0.00
2023-01-26T05:53:01.558Z,0.00
2023-01-26T05:54:01.560Z,0.00
2023-01-26T05:55:01.538Z,0.00
2023-01-26T05:56:01.481Z,0.00
2023-01-26T05:57:01.461Z,0.00
2023-01-26T05:58:01.431Z,0.00
2023-01-26T05:59:01.407Z,0.00
2023-01-26T06:00:01.439Z,0.00
2023-01-26T06:01:01.367Z,0.00
2023-01-26T06:02:01.385Z,0.00
2023-01-26T06:03:01.339Z,0.00
2023-01-26T06:04:01.327Z,0.00
2023-01-26T06:05:01.277Z,0.00
2023-01-26T06:06:01.258Z,0.00
2023-01-26T06:07:01.221Z,0.00
2023-01-26T06:08:01.205Z,0.00
2023-01-26T06:09:01.179Z,0.00
2023-01-26T06:10:01.193Z,0.00
2023-01-26T06:11:01.139Z,0.00
2023-01-26T06:12:01.102Z,0.00
2023-01-26T06:13:01.082Z,0.00
2023-01-26T06:14:01.066Z,0.00
2023-01-26T06:15:01.041Z,0.00
2023-01-26T06:16:01.014Z,0.00
2023-01-26T06:17:01.090Z,0.00
2023-01-26T06:18:00.981Z,0.00
2023-01-26T06:19:00.947Z,0.00
2023-01-26T06:20:00.942Z,0.00
2023-01-26T06:21:00.923Z,0.00
2023-01-26T06:22:00.928Z,0.00
2023-01-26T06:23:00.851Z,0.00
2023-01-26T06:24:00.846Z,0.00
2023-01-26T06:25:00.804Z,0.00
2023-01-26T06:26:00.778Z,0.00
2023-01-26T06:27:00.759Z,0.00
2023-01-26T06:28:00.759Z,0.00
2023-01-26T06:29:00.738Z,0.00
2023-01-26T06:30:00.697Z,0.00
2023-01-26T06:31:00.709Z,0.00
2023-01-26T06:32:00.648Z,0.00
2023-01-26T06:33:00.672Z,0.00
2023-01-26T06:34:00.597Z,0.00
2023-01-26T06:35:00.586Z,0.00
2023-01-26T06:36:00.545Z,0.00
2023-01-26T06:37:00.530Z,0.00
2023-01-26T06:38:00.500Z,0.00
2023-01-26T06:39:00.987Z,0.00
2023-01-26T06:40:00.458Z,0.00
2023-01-26T06:41:00.433Z,0.00
2023-01-26T06:42:00.408Z,0.00
2023-01-26T06:43:00.381Z,0.00
2023-01-26T06:44:00.360Z,0.00
2023-01-26T06:45:00.343Z,0.00
2023-01-26T06:46:00.370Z,0.00
2023-01-26T06:47:00.294Z,0.00
2023-01-26T06:48:00.263Z,0.00
2023-01-26T06:49:00.302Z,4.00
2023-01-26T06:50:00.252Z,4.00
2023-01-26T06:51:00.201Z,0.00
2023-01-26T06:52:00.192Z,0.00
2023-01-26T06:53:00.174Z,4.00
2023-01-26T06:54:00.128Z,0.00
2023-01-26T06:55:00.126Z,4.00
2023-01-26T06:56:00.127Z,4.00
2023-01-26T06:57:00.077Z,4.00
2023-01-26T06:58:00.042Z,4.00
2023-01-26T06:59:00.016Z,4.00
2023-01-26T07:00:00.049Z,8.00
2023-01-26T07:00:59.983Z,4.00
2023-01-26T07:01:59.941Z,8.00
2023-01-26T07:02:59.934Z,8.00
2023-01-26T07:03:59.903Z,12.00
2023-01-26T07:04:59.876Z,12.00
2023-01-26T07:05:59.881Z,16.00
2023-01-26T07:06:59.830Z,12.00
2023-01-26T07:07:59.808Z,16.00
2023-01-26T07:08:59.779Z,20.00
2023-01-26T07:09:59.762Z,20.00
2023-01-26T07:10:59.781Z,24.00
2023-01-26T07:11:59.751Z,24.00
2023-01-26T07:12:59.688Z,28.00
2023-01-26T07:13:59.670Z,32.00
2023-01-26T07:14:59.643Z,32.00
2023-01-26T07:15:59.718Z,36.00
2023-01-26T07:16:59.617Z,40.00
2023-01-26T07:17:59.576Z,40.00
2023-01-26T07:18:59.554Z,44.00
2023-01-26T07:20:02.199Z,48.00
2023-01-26T07:20:59.506Z,52.00
2023-01-26T07:21:59.527Z,52.00
2023-01-26T07:22:59.491Z,52.00
2023-01-26T07:23:59.530Z,52.00
2023-01-26T07:24:59.421Z,60.00
2023-01-26T07:25:59.397Z,68.00
2023-01-26T07:26:59.370Z,72.00
2023-01-26T07:27:59.366Z,76.00
2023-01-26T07:28:59.324Z,80.00
2023-01-26T07:29:59.301Z,80.00
2023-01-26T07:30:59.328Z,80.00
2023-01-26T07:31:59.350Z,88.00
2023-01-26T07:32:59.229Z,92.00
2023-01-26T07:33:59.233Z,100.00
2023-01-26T07:34:59.183Z,116.00
2023-01-26T07:35:59.165Z,124.00
2023-01-26T07:36:59.137Z,132.00
2023-01-26T07:37:59.143Z,136.00
2023-01-26T07:38:59.169Z,144.00
2023-01-26T07:39:59.070Z,148.00
2023-01-26T07:40:59.063Z,160.00
2023-01-26T07:41:59.027Z,164.00
2023-01-26T07:42:58.998Z,176.00
2023-01-26T07:43:59.028Z,180.00
2023-01-26T07:44:58.980Z,188.00
2023-01-26T07:45:58.972Z,204.00
2023-01-26T07:46:58.955Z,212.00
2023-01-26T07:47:58.887Z,224.00
2023-01-26T07:48:58.860Z,236.00
2023-01-26T07:49:58.853Z,252.00
2023-01-26T07:50:58.839Z,268.00
2023-01-26T07:51:58.796Z,288.00
2023-01-26T07:52:58.770Z,312.00
2023-01-26T07:53:58.753Z,324.00
2023-01-26T07:54:58.723Z,332.00
2023-01-26T07:55:58.704Z,344.00
2023-01-26T07:56:58.713Z,352.00
2023-01-26T07:57:58.666Z,360.00
2023-01-26T07:58:58.632Z,392.00
2023-01-26T07:59:58.628Z,392.00
2023-01-26T08:00:58.724Z,404.00
2023-01-26T08:01:58.622Z,420.00
2023-01-26T08:02:58.562Z,432.00
2023-01-26T08:03:58.522Z,436.00
2023-01-26T08:04:58.494Z,448.00
2023-01-26T08:05:58.475Z,472.00
2023-01-26T08:06:58.459Z,492.00
2023-01-26T08:07:58.427Z,488.00
2023-01-26T08:08:58.419Z,484.00
2023-01-26T08:09:58.385Z,488.00
2023-01-26T08:10:58.357Z,540.00
2023-01-26T08:11:58.375Z,568.00
2023-01-26T08:12:58.308Z,604.00
2023-01-26T08:13:58.287Z,608.00
2023-01-26T08:14:58.264Z,632.00
2023-01-26T08:15:58.260Z,616.00
2023-01-26T08:16:58.253Z,640.00
2023-01-26T08:17:58.210Z,680.00
2023-01-26T08:18:58.219Z,716.00
2023-01-26T08:19:58.155Z,752.00
2023-01-26T08:20:58.130Z,768.00
2023-01-26T08:21:58.134Z,756.00
2023-01-26T08:23:00.380Z,744.00
2023-01-26T08:23:58.558Z,756.00
2023-01-26T08:24:58.046Z,784.00
2023-01-26T08:25:58.092Z,836.00
2023-01-26T08:26:58.000Z,868.00
2023-01-26T08:27:57.968Z,868.00
2023-01-26T08:28:57.971Z,892.00
2023-01-26T08:29:57.922Z,956.00
2023-01-26T08:30:57.938Z,972.00
2023-01-26T08:31:57.904Z,1000.00
2023-01-26T08:32:57.880Z,1040.00
2023-01-26T08:33:57.891Z,1060.00
2023-01-26T08:34:57.806Z,1112.00
2023-01-26T08:35:57.789Z,1160.00
2023-01-26T08:36:57.760Z,1204.00
2023-01-26T08:37:57.745Z,1188.00
2023-01-26T08:38:57.730Z,1140.00
2023-01-26T08:39:57.729Z,1144.00
2023-01-26T08:40:57.673Z,1240.00
2023-01-26T08:41:57.665Z,1376.00
2023-01-26T08:42:57.626Z,1412.00
2023-01-26T08:43:57.635Z,1420.00
2023-01-26T08:44:57.590Z,1276.00
2023-01-26T08:45:57.594Z,1220.00
2023-01-26T08:46:57.549Z,1256.00
2023-01-26T08:47:57.569Z,1328.00
2023-01-26T08:49:00.234Z,1324.00
2023-01-26T08:49:57.471Z,1292.00
2023-01-26T08:50:57.450Z,1236.00
2023-01-26T08:51:57.428Z,1176.00
2023-01-26T08:52:57.429Z,1168.00
2023-01-26T08:53:57.426Z,1192.00
2023-01-26T08:54:57.421Z,1224.00
2023-01-26T08:55:57.375Z,1284.00
2023-01-26T08:56:57.317Z,1172.00
2023-01-26T08:57:57.287Z,1100.00
2023-01-26T08:58:57.270Z,1136.00
2023-01-26T08:59:57.245Z,1180.00
2023-01-26T09:00:57.284Z,1168.00
2023-01-26T09:01:57.234Z,1116.00
2023-01-26T09:02:57.294Z,1108.00
2023-01-26T09:03:57.188Z,1216.00
2023-01-26T09:04:57.128Z,1244.00
2023-01-26T09:05:57.109Z,1252.00
2023-01-26T09:06:57.170Z,1300.00
2023-01-26T09:07:57.100Z,1260.00
2023-01-26T09:08:57.037Z,1288.00
2023-01-26T09:09:57.133Z,1312.00
2023-01-26T09:10:57.081Z,1264.00
2023-01-26T09:11:56.972Z,1228.00
2023-01-26T09:12:56.980Z,1268.00
2023-01-26T09:13:56.943Z,1300.00
2023-01-26T09:14:56.910Z,1192.00
2023-01-26T09:15:56.885Z,1080.00
2023-01-26T09:16:56.922Z,1028.00
2023-01-26T09:17:58.095Z,1028.00
2023-01-26T09:18:56.809Z,1056.00
2023-01-26T09:19:56.792Z,1064.00
2023-01-26T09:20:56.776Z,1024.00
2023-01-26T09:21:56.759Z,1032.00
2023-01-26T09:22:56.757Z,1036.00
2023-01-26T09:23:56.774Z,1044.00
2023-01-26T09:24:56.677Z,1064.00
2023-01-26T09:25:56.664Z,1076.00
2023-01-26T09:26:56.632Z,1108.00
2023-01-26T09:27:56.651Z,1112.00
2023-01-26T09:28:56.648Z,1116.00
2023-01-26T09:29:56.588Z,1096.00
2023-01-26T09:30:56.728Z,1072.00
2023-01-26T09:31:56.650Z,1044.00
2023-01-26T09:32:56.629Z,1040.00
2023-01-26T09:33:56.483Z,1008.00
2023-01-26T09:34:56.476Z,1016.00
2023-01-26T09:35:56.531Z,1028.00
2023-01-26T09:36:56.408Z,1032.00
2023-01-26T09:37:56.382Z,1060.00
2023-01-26T09:38:56.365Z,1092.00
2023-01-26T09:39:56.475Z,1060.00
2023-01-26T09:40:56.323Z,1068.00
2023-01-26T09:41:56.294Z,1040.00
2023-01-26T09:42:56.291Z,968.00
2023-01-26T09:43:56.277Z,960.00
2023-01-26T09:44:56.253Z,1016.00
2023-01-26T09:45:56.251Z,996.00
2023-01-26T09:46:56.182Z,992.00
2023-01-26T09:47:56.168Z,1052.00
2023-01-26T09:48:56.154Z,1096.00
2023-01-26T09:49:57.202Z,1112.00
2023-01-26T09:50:56.094Z,1108.00
2023-01-26T09:51:57.581Z,1152.00
2023-01-26T09:52:56.056Z,1204.00
2023-01-26T09:53:56.049Z,1236.00
2023-01-26T09:54:56.003Z,1288.00
2023-01-26T09:55:55.991Z,1352.00
2023-01-26T09:56:55.954Z,1348.00
2023-01-26T09:57:55.952Z,1328.00
2023-01-26T09:58:55.915Z,1280.00
2023-01-26T09:59:55.901Z,1248.00
2023-01-26T10:00:55.877Z,1276.00
2023-01-26T10:01:55.851Z,1284.00
2023-01-26T10:02:55.863Z,1280.00
2023-01-26T10:03:56.453Z,1348.00
2023-01-26T10:04:55.783Z,1340.00
2023-01-26T10:05:55.789Z,1356.00
2023-01-26T10:06:55.734Z,1368.00
2023-01-26T10:07:55.746Z,1428.00
2023-01-26T10:08:55.744Z,1472.00
2023-01-26T10:09:55.687Z,1440.00
2023-01-26T10:10:55.653Z,1484.00
2023-01-26T10:11:55.632Z,1456.00
2023-01-26T10:12:55.646Z,1384.00
2023-01-26T10:13:55.580Z,1360.00
2023-01-26T10:14:57.515Z,1368.00
2023-01-26T10:15:56.204Z,1416.00
2023-01-26T10:16:55.571Z,1472.00
2023-01-26T10:17:55.528Z,1544.00
2023-01-26T10:18:56.225Z,1564.00
2023-01-26T10:19:55.459Z,1584.00
2023-01-26T10:20:55.449Z,1588.00
2023-01-26T10:21:55.409Z,1560.00
2023-01-26T10:22:55.377Z,1500.00
2023-01-26T10:23:55.471Z,1460.00
2023-01-26T10:24:55.351Z,1468.00
2023-01-26T10:25:55.405Z,1456.00
2023-01-26T10:26:55.302Z,1472.00
2023-01-26T10:27:55.291Z,1512.00
2023-01-26T10:28:55.247Z,1600.00
2023-01-26T10:29:55.223Z,1676.00
2023-01-26T10:30:55.318Z,1680.00
2023-01-26T10:31:55.223Z,1708.00
2023-01-26T10:32:55.152Z,1756.00
2023-01-26T10:33:55.130Z,1848.00
2023-01-26T10:34:55.120Z,1840.00
2023-01-26T10:35:55.123Z,1892.00
2023-01-26T10:36:55.073Z,1944.00
2023-01-26T10:37:55.045Z,1916.00
2023-01-26T10:38:55.043Z,1896.00
2023-01-26T10:39:55.029Z,1832.00
2023-01-26T10:40:54.976Z,1984.00
2023-01-26T10:41:54.963Z,1984.00
2023-01-26T10:42:54.965Z,1936.00
2023-01-26T10:43:54.916Z,1860.00
2023-01-26T10:44:54.897Z,1824.00
2023-01-26T10:45:54.902Z,1816.00
2023-01-26T10:46:54.851Z,1712.00
2023-01-26T10:47:54.820Z,1732.00
2023-01-26T10:48:54.812Z,1664.00
2023-01-26T10:49:54.774Z,1624.00
2023-01-26T10:50:54.791Z,1660.00
2023-01-26T10:51:54.730Z,1736.00
2023-01-26T10:52:54.710Z,1748.00
2023-01-26T10:53:54.696Z,1844.00
2023-01-26T10:54:54.665Z,1788.00
2023-01-26T10:55:54.684Z,1748.00
2023-01-26T10:56:55.691Z,1668.00
2023-01-26T10:57:54.598Z,1664.00
2023-01-26T10:58:54.581Z,1700.00
2023-01-26T10:59:54.555Z,1720.00
2023-01-26T11:00:54.529Z,1760.00
2023-01-26T11:01:54.617Z,1748.00
2023-01-26T11:02:54.519Z,1752.00
2023-01-26T11:03:55.329Z,1752.00
2023-01-26T11:04:54.444Z,1788.00
2023-01-26T11:05:54.420Z,1816.00
2023-01-26T11:06:54.422Z,1760.00
2023-01-26T11:07:54.392Z,1688.00
2023-01-26T11:08:54.355Z,1708.00
2023-01-26T11:09:54.347Z,1784.00
2023-01-26T11:10:54.316Z,1804.00
2023-01-26T11:11:54.286Z,1820.00
2023-01-26T11:12:54.334Z,1876.00
2023-01-26T11:13:54.245Z,1880.00
2023-01-26T11:14:54.222Z,1860.00
2023-01-26T11:15:54.234Z,1852.00
2023-01-26T11:16:54.177Z,1860.00
2023-01-26T11:17:54.162Z,1892.00
2023-01-26T11:18:54.142Z,1924.00
2023-01-26T11:19:54.134Z,1900.00
2023-01-26T11:20:54.102Z,1828.00
2023-01-26T11:21:54.065Z,1840.00
2023-01-26T11:22:54.071Z,1936.00
2023-01-26T11:23:54.066Z,1972.00
2023-01-26T11:24:54.005Z,1944.00
2023-01-26T11:25:54.019Z,1952.00
2023-01-26T11:26:53.969Z,1960.00
2023-01-26T11:27:53.948Z,2000.00
2023-01-26T11:28:53.911Z,1968.00
2023-01-26T11:29:54.063Z,1884.00
2023-01-26T11:30:53.923Z,1872.00
2023-01-26T11:31:53.894Z,1812.00
2023-01-26T11:32:53.870Z,1708.00
2023-01-26T11:33:53.803Z,1796.00
2023-01-26T11:34:53.784Z,1816.00
2023-01-26T11:35:53.767Z,1672.00
2023-01-26T11:36:53.840Z,1572.00
2023-01-26T11:37:54.112Z,1568.00
2023-01-26T11:38:53.749Z,1512.00
2023-01-26T11:39:53.670Z,1516.00
2023-01-26T11:40:53.711Z,1508.00
2023-01-26T11:41:53.725Z,1496.00
2023-01-26T11:42:53.658Z,1580.00
2023-01-26T11:43:53.626Z,1632.00
2023-01-26T11:44:53.565Z,1608.00
2023-01-26T11:45:55.127Z,1592.00
2023-01-26T11:46:53.524Z,1576.00
2023-01-26T11:47:53.496Z,1580.00
2023-01-26T11:48:53.527Z,1580.00
2023-01-26T11:49:53.461Z,1532.00
2023-01-26T11:50:53.428Z,1576.00
2023-01-26T11:51:53.464Z,1592.00
2023-01-26T11:52:53.391Z,1560.00
2023-01-26T11:53:53.386Z,1532.00
2023-01-26T11:54:53.375Z,1536.00
2023-01-26T11:55:53.333Z,1496.00
2023-01-26T11:56:53.355Z,1564.00
2023-01-26T11:57:53.269Z,1540.00
2023-01-26T11:58:53.293Z,1512.00
2023-01-26T11:59:53.247Z,1524.00
2023-01-26T12:00:53.208Z,1524.00
2023-01-26T12:01:53.202Z,1604.00
2023-01-26T12:02:53.167Z,1680.00
2023-01-26T12:03:53.149Z,1756.00
2023-01-26T12:04:53.120Z,1796.00
2023-01-26T12:05:53.105Z,1824.00
2023-01-26T12:06:53.077Z,1880.00
2023-01-26T12:07:53.048Z,1884.00
2023-01-26T12:08:53.027Z,1860.00
2023-01-26T12:09:53.007Z,1800.00
2023-01-26T12:10:52.985Z,1852.00
2023-01-26T12:11:52.961Z,1824.00
2023-01-26T12:12:52.967Z,1792.00
2023-01-26T12:13:52.923Z,1824.00
2023-01-26T12:14:52.938Z,1748.00
2023-01-26T12:15:52.872Z,1756.00
2023-01-26T12:16:52.898Z,1768.00
2023-01-26T12:17:52.834Z,1748.00
2023-01-26T12:19:05.465Z,1772.00
2023-01-26T12:19:52.793Z,1744.00
2023-01-26T12:20:52.775Z,1740.00
2023-01-26T12:21:52.770Z,1804.00
2023-01-26T12:22:52.858Z,1768.00
2023-01-26T12:23:52.793Z,1808.00
2023-01-26T12:25:17.628Z,1816.00
2023-01-26T12:25:52.784Z,1808.00
2023-01-26T12:26:52.632Z,1888.00
2023-01-26T12:27:52.608Z,2020.00
2023-01-26T12:28:52.591Z,2208.00
2023-01-26T12:29:52.566Z,2256.00
2023-01-26T12:30:52.611Z,2404.00
2023-01-26T12:31:52.597Z,2464.00
2023-01-26T12:32:52.538Z,2316.00
2023-01-26T12:33:52.483Z,2532.00
2023-01-26T12:34:52.457Z,2560.00
2023-01-26T12:35:52.460Z,2652.00
2023-01-26T12:36:52.411Z,2428.00
2023-01-26T12:37:52.399Z,2456.00
2023-01-26T12:38:52.368Z,2668.00
2023-01-26T12:39:52.368Z,2744.00
2023-01-26T12:40:52.349Z,2684.00
2023-01-26T12:41:52.302Z,2684.00
2023-01-26T12:42:52.279Z,2752.00
2023-01-26T12:43:52.281Z,2636.00
2023-01-26T12:44:52.242Z,2656.00
2023-01-26T12:45:52.225Z,2840.00
2023-01-26T12:46:52.193Z,3012.00
2023-01-26T12:47:52.170Z,3104.00